createdAt,value
2022-10-24T00:00:22.489Z,25.27
2022-10-24T00:00:53.998Z,25.30
2022-10-24T00:01:25.446Z,25.27
2022-10-24T00:01:56.969Z,25.28
2022-10-24T00:02:28.391Z,25.26
2022-10-24T00:02:59.954Z,25.29
2022-10-24T00:03:31.406Z,25.32
2022-10-24T00:04:02.893Z,25.30
2022-10-24T00:04:34.313Z,25.30
2022-10-24T00:05:05.854Z,25.28
2022-10-24T00:05:39.914Z,25.27
2022-10-24T00:06:11.349Z,25.26
2022-10-24T00:06:42.873Z,25.25
2022-10-24T00:07:14.346Z,25.27
2022-10-24T00:07:45.975Z,25.26
2022-10-24T00:08:17.722Z,25.25
2022-10-24T00:08:49.131Z,25.24
2022-10-24T00:09:20.515Z,25.23
2022-10-24T00:09:51.942Z,25.25
2022-10-24T00:10:23.398Z,25.22
2022-10-24T00:10:54.835Z,25.21
2022-10-24T00:11:26.228Z,25.20
2022-10-24T00:11:57.641Z,25.20
2022-10-24T00:12:29.098Z,25.19
2022-10-24T00:13:00.513Z,25.19
2022-10-24T00:13:31.954Z,25.20
2022-10-24T00:14:03.343Z,25.19
2022-10-24T00:14:34.831Z,25.19
2022-10-24T00:15:06.286Z,25.19
2022-10-24T00:15:37.802Z,25.20
2022-10-24T00:16:09.165Z,25.23
2022-10-24T00:16:40.566Z,25.22
2022-10-24T00:17:12.067Z,25.22
2022-10-24T00:17:43.507Z,25.21
2022-10-24T00:18:14.883Z,25.19
2022-10-24T00:18:46.314Z,25.20
2022-10-24T00:19:17.766Z,25.20
2022-10-24T00:19:49.232Z,25.20
2022-10-24T00:20:20.719Z,25.21
2022-10-24T00:20:52.219Z,25.22
2022-10-24T00:21:23.629Z,25.22
2022-10-24T00:21:55.068Z,25.22
2022-10-24T00:22:26.426Z,25.23
2022-10-24T00:22:57.814Z,25.20
2022-10-24T00:23:29.279Z,25.17
2022-10-24T00:24:00.713Z,25.17
2022-10-24T00:24:32.136Z,25.17
2022-10-24T00:25:03.577Z,25.15
2022-10-24T00:25:34.972Z,25.16
2022-10-24T00:26:06.437Z,25.17
2022-10-24T00:26:37.844Z,25.17
2022-10-24T00:27:09.314Z,25.19
2022-10-24T00:27:40.748Z,25.20
2022-10-24T00:28:12.155Z,25.22
2022-10-24T00:28:43.557Z,25.20
2022-10-24T00:29:14.928Z,25.18
2022-10-24T00:29:46.416Z,25.17
2022-10-24T00:30:17.821Z,25.14
2022-10-24T00:30:49.266Z,25.15
2022-10-24T00:31:20.769Z,25.13
2022-10-24T00:31:52.207Z,25.17
2022-10-24T00:32:23.686Z,25.19
2022-10-24T00:32:55.136Z,25.20
2022-10-24T00:33:26.543Z,25.19
2022-10-24T00:33:57.935Z,25.17
2022-10-24T00:34:29.347Z,25.16
2022-10-24T00:35:00.745Z,25.13
2022-10-24T00:35:32.141Z,25.15
2022-10-24T00:36:03.601Z,25.13
2022-10-24T00:36:35.072Z,25.14
2022-10-24T00:37:06.647Z,25.17
2022-10-24T00:37:38.087Z,25.16
2022-10-24T00:38:09.529Z,25.16
2022-10-24T00:38:40.995Z,25.16
2022-10-24T00:39:12.389Z,25.18
2022-10-24T00:39:43.917Z,25.19
2022-10-24T00:40:15.327Z,25.20
2022-10-24T00:40:46.761Z,25.19
2022-10-24T00:41:18.264Z,25.18
2022-10-24T00:41:49.672Z,25.20
2022-10-24T00:42:21.223Z,25.20
2022-10-24T00:42:52.629Z,25.19
2022-10-24T00:43:24.071Z,25.20
2022-10-24T00:43:55.456Z,25.20
2022-10-24T00:44:26.851Z,25.21
2022-10-24T00:44:58.289Z,25.20
2022-10-24T00:45:29.783Z,25.22
2022-10-24T00:46:01.221Z,25.21
2022-10-24T00:46:32.694Z,25.22
2022-10-24T00:47:04.178Z,25.21
2022-10-24T00:47:35.698Z,25.22
2022-10-24T00:48:07.126Z,25.23
2022-10-24T00:48:38.551Z,25.24
2022-10-24T00:49:10.062Z,25.23
2022-10-24T00:49:41.528Z,25.23
2022-10-24T00:50:12.961Z,25.26
2022-10-24T00:50:44.321Z,25.24
2022-10-24T00:51:15.728Z,25.23
2022-10-24T00:51:47.100Z,25.21
2022-10-24T00:52:18.575Z,25.19
2022-10-24T00:52:49.977Z,25.19
2022-10-24T00:53:21.394Z,25.21
2022-10-24T00:53:52.837Z,25.21
2022-10-24T00:54:24.266Z,25.20
2022-10-24T00:54:55.632Z,25.19
2022-10-24T00:55:27.067Z,25.20
2022-10-24T00:55:58.480Z,25.19
2022-10-24T00:56:29.930Z,25.19
2022-10-24T00:57:01.512Z,25.18
2022-10-24T00:57:32.935Z,25.19
2022-10-24T00:58:04.341Z,25.20
2022-10-24T00:58:35.777Z,25.20
2022-10-24T00:59:07.241Z,25.20
2022-10-24T00:59:38.689Z,25.20
2022-10-24T01:00:10.095Z,25.21
2022-10-24T01:00:41.525Z,25.21
2022-10-24T01:01:13.135Z,25.20
2022-10-24T01:01:44.698Z,25.20
2022-10-24T01:02:16.149Z,25.19
2022-10-24T01:02:47.607Z,25.18
2022-10-24T01:03:19.027Z,25.17
2022-10-24T01:03:50.421Z,25.16
2022-10-24T01:04:21.863Z,25.18
2022-10-24T01:04:53.249Z,25.18
2022-10-24T01:05:24.780Z,25.19
2022-10-24T01:05:56.205Z,25.20
2022-10-24T01:06:27.605Z,25.19
2022-10-24T01:06:59.062Z,25.17
2022-10-24T01:07:30.459Z,25.18
2022-10-24T01:08:01.883Z,25.17
2022-10-24T01:08:33.275Z,25.20
2022-10-24T01:09:04.801Z,25.16
2022-10-24T01:09:36.182Z,25.15
2022-10-24T01:10:07.595Z,25.14
2022-10-24T01:10:38.992Z,25.14
2022-10-24T01:11:10.355Z,25.13
2022-10-24T01:11:41.715Z,25.12
2022-10-24T01:12:13.177Z,25.15
2022-10-24T01:12:44.825Z,25.15
2022-10-24T01:13:16.366Z,25.13
2022-10-24T01:13:47.820Z,25.13
2022-10-24T01:14:19.266Z,25.09
2022-10-24T01:14:50.663Z,25.12
2022-10-24T01:15:22.093Z,25.13
2022-10-24T01:15:53.508Z,25.14
2022-10-24T01:16:24.951Z,25.12
2022-10-24T01:16:56.434Z,25.11
2022-10-24T01:17:27.868Z,25.10
2022-10-24T01:17:59.299Z,25.13
2022-10-24T01:18:30.697Z,25.14
2022-10-24T01:19:02.195Z,25.15
2022-10-24T01:19:33.684Z,25.16
2022-10-24T01:20:05.137Z,25.13
2022-10-24T01:20:36.530Z,25.09
2022-10-24T01:21:07.930Z,25.06
2022-10-24T01:21:39.312Z,25.09
2022-10-24T01:22:10.745Z,25.05
2022-10-24T01:22:42.314Z,25.02
2022-10-24T01:23:13.887Z,25.04
2022-10-24T01:23:45.308Z,25.06
2022-10-24T01:24:16.802Z,25.05
2022-10-24T01:24:48.201Z,25.06
2022-10-24T01:25:19.663Z,25.07
2022-10-24T01:25:51.110Z,25.06
2022-10-24T01:26:22.537Z,25.08
2022-10-24T01:26:54.015Z,25.07
2022-10-24T01:27:25.427Z,25.07
2022-10-24T01:27:57.000Z,25.07
2022-10-24T01:28:28.405Z,25.10
2022-10-24T01:28:59.796Z,25.09
2022-10-24T01:29:31.275Z,25.08
2022-10-24T01:30:02.692Z,25.07
2022-10-24T01:30:34.108Z,25.05
2022-10-24T01:31:05.479Z,25.07
2022-10-24T01:31:36.882Z,25.05
2022-10-24T01:32:08.303Z,25.01
2022-10-24T01:32:39.778Z,25.02
2022-10-24T01:33:11.166Z,24.98
2022-10-24T01:33:42.590Z,24.99
2022-10-24T01:34:13.989Z,24.99
2022-10-24T01:34:45.629Z,25.00
2022-10-24T01:35:17.017Z,25.00
2022-10-24T01:35:48.443Z,25.00
2022-10-24T01:36:19.874Z,25.02
2022-10-24T01:36:51.322Z,25.04
2022-10-24T01:37:22.751Z,25.06
2022-10-24T01:37:54.199Z,25.06
2022-10-24T01:38:25.582Z,25.05
2022-10-24T01:38:57.003Z,25.07
2022-10-24T01:39:28.369Z,25.06
2022-10-24T01:39:59.815Z,25.10
2022-10-24T01:40:31.207Z,25.10
2022-10-24T01:41:02.635Z,25.05
2022-10-24T01:41:34.087Z,25.04
2022-10-24T01:42:05.532Z,25.05
2022-10-24T01:42:36.990Z,25.07
2022-10-24T01:43:08.409Z,25.09
2022-10-24T01:43:39.934Z,25.09
2022-10-24T01:44:11.423Z,25.07
2022-10-24T01:44:42.887Z,25.08
2022-10-24T01:45:14.347Z,25.08
2022-10-24T01:45:45.743Z,25.09
2022-10-24T01:46:17.136Z,25.12
2022-10-24T01:46:48.527Z,25.08
2022-10-24T01:47:20.005Z,25.08
2022-10-24T01:47:51.472Z,25.08
2022-10-24T01:48:22.892Z,25.09
2022-10-24T01:48:54.315Z,25.09
2022-10-24T01:49:25.735Z,25.08
2022-10-24T01:49:57.225Z,25.05
2022-10-24T01:50:28.668Z,25.08
2022-10-24T01:51:00.111Z,25.04
2022-10-24T01:51:31.534Z,25.07
2022-10-24T01:52:03.021Z,25.06
2022-10-24T01:52:34.527Z,25.06
2022-10-24T01:53:05.949Z,25.03
2022-10-24T01:53:37.390Z,25.02
2022-10-24T01:54:08.859Z,25.03
2022-10-24T01:54:40.283Z,25.05
2022-10-24T01:55:11.685Z,25.04
2022-10-24T01:55:43.188Z,25.04
2022-10-24T01:56:14.579Z,25.02
2022-10-24T01:56:46.015Z,25.01
2022-10-24T01:57:17.428Z,25.03
2022-10-24T01:57:48.857Z,25.03
2022-10-24T01:58:20.244Z,25.02
2022-10-24T01:58:51.785Z,25.02
2022-10-24T01:59:23.212Z,25.03
2022-10-24T01:59:54.757Z,25.03
2022-10-24T02:00:26.201Z,25.02
2022-10-24T02:00:57.765Z,25.04
2022-10-24T02:01:29.274Z,25.03
2022-10-24T02:02:00.748Z,25.02
2022-10-24T02:02:32.157Z,25.03
2022-10-24T02:03:03.563Z,25.01
2022-10-24T02:03:35.093Z,25.03
2022-10-24T02:04:06.538Z,25.04
2022-10-24T02:04:37.992Z,25.05
2022-10-24T02:05:09.575Z,25.04
2022-10-24T02:05:41.098Z,25.07
2022-10-24T02:06:12.544Z,25.08
2022-10-24T02:06:43.964Z,25.08
2022-10-24T02:07:15.366Z,25.07
2022-10-24T02:07:46.899Z,25.06
2022-10-24T02:08:18.276Z,25.07
2022-10-24T02:08:49.822Z,25.05
2022-10-24T02:09:21.315Z,25.09
2022-10-24T02:09:52.721Z,25.07
2022-10-24T02:10:24.150Z,25.05
2022-10-24T02:10:55.500Z,25.02
2022-10-24T02:11:26.934Z,25.04
2022-10-24T02:11:58.523Z,25.02
2022-10-24T02:12:29.944Z,25.01
2022-10-24T02:13:01.363Z,25.00
2022-10-24T02:13:32.849Z,25.00
2022-10-24T02:14:04.260Z,24.96
2022-10-24T02:14:35.750Z,24.97
2022-10-24T02:15:07.158Z,24.96
2022-10-24T02:15:38.549Z,24.96
2022-10-24T02:16:09.955Z,24.97
2022-10-24T02:16:41.375Z,24.95
2022-10-24T02:17:12.892Z,24.95
2022-10-24T02:17:44.642Z,24.94
2022-10-24T02:18:16.333Z,24.94
2022-10-24T02:18:47.713Z,24.93
2022-10-24T02:19:19.117Z,24.94
2022-10-24T02:19:50.524Z,24.96
2022-10-24T02:20:21.929Z,24.98
2022-10-24T02:20:53.396Z,24.93
2022-10-24T02:21:24.860Z,24.94
2022-10-24T02:21:56.290Z,24.94
2022-10-24T02:22:27.726Z,24.91
2022-10-24T02:22:59.136Z,24.93
2022-10-24T02:23:30.632Z,24.95
2022-10-24T02:24:02.071Z,24.94
2022-10-24T02:24:35.656Z,24.95
2022-10-24T02:25:07.004Z,24.98
2022-10-24T02:25:38.503Z,24.96
2022-10-24T02:26:10.025Z,24.98
2022-10-24T02:26:41.588Z,25.01
2022-10-24T02:27:13.059Z,25.01
2022-10-24T02:27:44.777Z,24.99
2022-10-24T02:28:16.450Z,24.99
2022-10-24T02:28:47.880Z,24.99
2022-10-24T02:29:19.294Z,24.98
2022-10-24T02:29:50.720Z,25.01
2022-10-24T02:30:22.120Z,25.01
2022-10-24T02:30:53.590Z,25.00
2022-10-24T02:31:25.133Z,25.01
2022-10-24T02:31:56.607Z,25.00
2022-10-24T02:32:28.038Z,24.99
2022-10-24T02:32:59.470Z,24.96
2022-10-24T02:33:30.875Z,24.98
2022-10-24T02:34:02.348Z,24.99
2022-10-24T02:34:33.807Z,24.96
2022-10-24T02:35:05.273Z,24.96
2022-10-24T02:35:36.711Z,24.97
2022-10-24T02:36:08.088Z,24.96
2022-10-24T02:36:39.556Z,24.94
2022-10-24T02:37:10.959Z,24.96
2022-10-24T02:37:42.651Z,24.98
2022-10-24T02:38:14.323Z,24.96
2022-10-24T02:38:45.726Z,24.95
2022-10-24T02:39:17.165Z,24.94
2022-10-24T02:39:48.582Z,24.95
2022-10-24T02:40:20.009Z,24.96
2022-10-24T02:40:51.481Z,24.94
2022-10-24T02:41:22.906Z,24.91
2022-10-24T02:41:54.377Z,24.92
2022-10-24T02:42:25.933Z,24.92
2022-10-24T02:42:57.428Z,24.91
2022-10-24T02:43:28.841Z,24.94
2022-10-24T02:44:00.249Z,24.94
2022-10-24T02:44:31.732Z,24.95
2022-10-24T02:45:03.313Z,24.95
2022-10-24T02:45:34.779Z,24.97
2022-10-24T02:46:06.204Z,25.01
2022-10-24T02:46:37.710Z,24.99
2022-10-24T02:47:09.193Z,25.01
2022-10-24T02:47:40.594Z,24.99
2022-10-24T02:48:11.969Z,24.99
2022-10-24T02:48:43.405Z,25.00
2022-10-24T02:49:14.801Z,24.97
2022-10-24T02:49:46.203Z,24.95
2022-10-24T02:50:17.680Z,24.96
2022-10-24T02:50:49.075Z,24.92
2022-10-24T02:51:20.482Z,24.94
2022-10-24T02:51:51.889Z,24.91
2022-10-24T02:52:23.472Z,24.90
2022-10-24T02:52:54.895Z,24.93
2022-10-24T02:53:26.362Z,24.92
2022-10-24T02:53:57.766Z,24.93
2022-10-24T02:54:29.200Z,24.94
2022-10-24T02:55:00.683Z,24.95
2022-10-24T02:55:32.101Z,24.97
2022-10-24T02:56:03.570Z,24.96
2022-10-24T02:56:34.969Z,24.96
2022-10-24T02:57:06.386Z,24.97
2022-10-24T02:57:37.821Z,24.98
2022-10-24T02:58:09.215Z,24.97
2022-10-24T02:58:40.601Z,24.95
2022-10-24T02:59:12.003Z,24.95
2022-10-24T02:59:43.396Z,24.93
2022-10-24T03:00:14.903Z,24.93
2022-10-24T03:00:46.324Z,24.91
2022-10-24T03:01:17.878Z,24.92
2022-10-24T03:01:49.459Z,24.89
2022-10-24T03:02:21.034Z,24.87
2022-10-24T03:02:52.537Z,24.88
2022-10-24T03:03:24.069Z,24.87
2022-10-24T03:03:55.512Z,24.88
2022-10-24T03:04:26.910Z,24.88
2022-10-24T03:04:58.358Z,24.88
2022-10-24T03:05:29.784Z,24.88
2022-10-24T03:06:01.225Z,24.89
2022-10-24T03:06:32.624Z,24.91
2022-10-24T03:07:04.042Z,24.90
2022-10-24T03:07:35.432Z,24.86
2022-10-24T03:08:06.902Z,24.88
2022-10-24T03:08:38.303Z,24.87
2022-10-24T03:09:09.760Z,24.82
2022-10-24T03:09:41.219Z,24.85
2022-10-24T03:10:12.616Z,24.82
2022-10-24T03:10:44.070Z,24.83
2022-10-24T03:11:15.521Z,24.84
2022-10-24T03:11:46.937Z,24.86
2022-10-24T03:12:18.350Z,24.84
2022-10-24T03:12:49.765Z,24.84
2022-10-24T03:13:21.387Z,24.85
2022-10-24T03:13:52.778Z,24.86
2022-10-24T03:14:24.221Z,24.89
2022-10-24T03:14:55.601Z,24.85
2022-10-24T03:15:27.159Z,24.86
2022-10-24T03:15:58.610Z,24.85
2022-10-24T03:16:29.987Z,24.84
2022-10-24T03:17:01.406Z,24.86
2022-10-24T03:17:32.800Z,24.87
2022-10-24T03:18:04.224Z,24.86
2022-10-24T03:18:37.753Z,24.84
2022-10-24T03:19:09.192Z,24.85
2022-10-24T03:19:40.594Z,24.83
2022-10-24T03:20:11.995Z,24.87
2022-10-24T03:20:43.399Z,24.88
2022-10-24T03:21:14.823Z,24.87
2022-10-24T03:21:46.246Z,24.87
2022-10-24T03:22:17.738Z,24.89
2022-10-24T03:22:49.121Z,24.88
2022-10-24T03:23:20.538Z,24.86
2022-10-24T03:23:52.135Z,24.88
2022-10-24T03:24:31.339Z,24.89
2022-10-24T03:25:15.044Z,24.86
2022-10-24T03:25:46.541Z,24.87
2022-10-24T03:26:18.066Z,24.89
2022-10-24T03:26:49.439Z,24.89
2022-10-24T03:27:20.854Z,24.90
2022-10-24T03:27:52.262Z,24.88
2022-10-24T03:28:23.732Z,24.88
2022-10-24T03:28:55.309Z,24.87
2022-10-24T03:29:26.687Z,24.90
2022-10-24T03:29:58.137Z,24.88
2022-10-24T03:30:29.564Z,24.88
2022-10-24T03:31:01.007Z,24.90
2022-10-24T03:31:32.398Z,24.92
2022-10-24T03:32:03.776Z,24.93
2022-10-24T03:32:35.309Z,24.94
2022-10-24T03:33:06.691Z,24.93
2022-10-24T03:33:38.078Z,24.93
2022-10-24T03:34:09.573Z,24.93
2022-10-24T03:34:40.975Z,24.94
2022-10-24T03:35:14.115Z,24.93
2022-10-24T03:35:45.912Z,24.93
2022-10-24T03:36:17.296Z,24.94
2022-10-24T03:36:48.698Z,24.90
2022-10-24T03:37:20.184Z,24.89
2022-10-24T03:37:51.638Z,24.90
2022-10-24T03:38:23.064Z,24.90
2022-10-24T03:38:54.478Z,24.91
2022-10-24T03:39:26.026Z,24.92
2022-10-24T03:39:57.413Z,24.91
2022-10-24T03:40:28.917Z,24.93
2022-10-24T03:41:00.339Z,24.93
2022-10-24T03:41:31.740Z,24.95
2022-10-24T03:42:03.169Z,24.94
2022-10-24T03:42:34.585Z,24.94
2022-10-24T03:43:06.032Z,24.91
2022-10-24T03:43:37.386Z,24.94
2022-10-24T03:44:08.802Z,24.94
2022-10-24T03:44:40.258Z,24.93
2022-10-24T03:45:11.652Z,24.93
2022-10-24T03:45:43.087Z,24.93
2022-10-24T03:46:14.502Z,24.93
2022-10-24T03:46:45.890Z,24.93
2022-10-24T03:47:17.350Z,24.94
2022-10-24T03:47:48.771Z,24.90
2022-10-24T03:48:20.159Z,24.91
2022-10-24T03:48:51.671Z,24.91
2022-10-24T03:49:23.118Z,24.91
2022-10-24T03:49:54.603Z,24.91
2022-10-24T03:50:26.033Z,24.90
2022-10-24T03:50:57.473Z,24.89
2022-10-24T03:51:28.898Z,24.90
2022-10-24T03:52:00.304Z,24.92
2022-10-24T03:52:31.763Z,24.92
2022-10-24T03:53:03.205Z,24.93
2022-10-24T03:53:34.683Z,24.93
2022-10-24T03:54:06.065Z,24.93
2022-10-24T03:54:37.458Z,24.91
2022-10-24T03:55:09.060Z,24.90
2022-10-24T03:55:40.492Z,24.91
2022-10-24T03:56:11.895Z,24.89
2022-10-24T03:56:43.280Z,24.90
2022-10-24T03:57:14.762Z,24.90
2022-10-24T03:57:46.444Z,24.90
2022-10-24T03:58:18.059Z,24.91
2022-10-24T03:58:49.473Z,24.92
2022-10-24T03:59:20.997Z,24.93
2022-10-24T03:59:52.463Z,24.95
2022-10-24T04:00:24.010Z,24.95
2022-10-24T04:00:55.520Z,24.93
2022-10-24T04:01:27.135Z,24.91
2022-10-24T04:01:58.679Z,24.92
2022-10-24T04:02:30.203Z,24.92
2022-10-24T04:03:01.611Z,24.93
2022-10-24T04:03:33.124Z,24.94
2022-10-24T04:04:04.566Z,24.93
2022-10-24T04:04:35.981Z,24.92
2022-10-24T04:05:07.364Z,24.94
2022-10-24T04:06:15.067Z,24.92
2022-10-24T04:06:46.532Z,24.90
2022-10-24T04:07:17.937Z,24.89
2022-10-24T04:07:49.420Z,24.89
2022-10-24T04:08:20.814Z,24.93
2022-10-24T04:08:52.257Z,24.91
2022-10-24T04:09:23.658Z,24.90
2022-10-24T04:09:55.077Z,24.90
2022-10-24T04:10:26.519Z,24.88
2022-10-24T04:10:58.045Z,24.89
2022-10-24T04:11:29.475Z,24.90
2022-10-24T04:12:00.932Z,24.89
2022-10-24T04:12:32.359Z,24.92
2022-10-24T04:13:03.797Z,24.92
2022-10-24T04:13:35.211Z,24.94
2022-10-24T04:14:06.630Z,24.93
2022-10-24T04:14:38.029Z,24.93
2022-10-24T04:15:09.498Z,24.94
2022-10-24T04:15:40.932Z,24.92
2022-10-24T04:16:12.387Z,24.93
2022-10-24T04:16:43.765Z,24.94
2022-10-24T04:17:15.207Z,24.94
2022-10-24T04:17:46.873Z,24.94
2022-10-24T04:18:18.568Z,24.91
2022-10-24T04:18:50.043Z,24.88
2022-10-24T04:19:21.412Z,24.90
2022-10-24T04:19:52.807Z,24.91
2022-10-24T04:20:24.203Z,24.85
2022-10-24T04:20:55.585Z,24.82
2022-10-24T04:21:27.090Z,24.84
2022-10-24T04:21:58.512Z,24.87
2022-10-24T04:22:29.900Z,24.88
2022-10-24T04:23:03.759Z,24.89
2022-10-24T04:23:36.087Z,24.86
2022-10-24T04:24:07.513Z,24.87
2022-10-24T04:24:38.943Z,24.87
2022-10-24T04:25:10.366Z,24.87
2022-10-24T04:25:41.762Z,24.89
2022-10-24T04:26:13.316Z,24.90
2022-10-24T04:26:44.800Z,24.88
2022-10-24T04:27:16.203Z,24.90
2022-10-24T04:27:47.636Z,24.89
2022-10-24T04:28:19.060Z,24.92
2022-10-24T04:28:50.464Z,24.92
2022-10-24T04:29:21.915Z,24.92
2022-10-24T04:29:53.337Z,24.93
2022-10-24T04:30:24.743Z,24.90
2022-10-24T04:30:56.245Z,24.94
2022-10-24T04:31:27.734Z,24.93
2022-10-24T04:31:59.220Z,24.92
2022-10-24T04:32:30.731Z,24.93
2022-10-24T04:33:02.140Z,24.93
2022-10-24T04:33:33.718Z,24.94
2022-10-24T04:34:05.100Z,24.95
2022-10-24T04:34:36.586Z,24.95
2022-10-24T04:35:08.045Z,24.96
2022-10-24T04:35:39.439Z,24.97
2022-10-24T04:36:10.911Z,24.95
2022-10-24T04:36:42.304Z,24.96
2022-10-24T04:37:13.750Z,24.93
2022-10-24T04:37:45.166Z,24.94
2022-10-24T04:38:16.590Z,24.95
2022-10-24T04:38:47.994Z,24.92
2022-10-24T04:39:19.399Z,24.92
2022-10-24T04:39:50.814Z,24.90
2022-10-24T04:40:22.226Z,24.91
2022-10-24T04:40:53.685Z,24.92
2022-10-24T04:41:25.103Z,24.94
2022-10-24T04:41:56.530Z,24.95
2022-10-24T04:42:27.978Z,24.95
2022-10-24T04:42:59.445Z,24.96
2022-10-24T04:43:30.870Z,24.92
2022-10-24T04:44:02.377Z,24.95
2022-10-24T04:44:33.790Z,24.95
2022-10-24T04:45:05.179Z,24.94
2022-10-24T04:45:36.609Z,24.92
2022-10-24T04:46:07.995Z,24.87
2022-10-24T04:46:39.415Z,24.86
2022-10-24T04:47:10.963Z,24.85
2022-10-24T04:47:42.655Z,24.84
2022-10-24T04:48:14.195Z,24.84
2022-10-24T04:48:45.594Z,24.85
2022-10-24T04:49:17.041Z,24.84
2022-10-24T04:49:48.441Z,24.83
2022-10-24T04:50:19.844Z,24.86
2022-10-24T04:50:51.279Z,24.85
2022-10-24T04:51:22.835Z,24.88
2022-10-24T04:51:54.297Z,24.90
2022-10-24T04:52:25.755Z,24.90
2022-10-24T04:52:57.197Z,24.90
2022-10-24T04:53:29.174Z,24.92
2022-10-24T04:54:00.586Z,24.91
2022-10-24T04:54:31.997Z,24.88
2022-10-24T04:55:03.479Z,24.87
2022-10-24T04:55:35.033Z,24.88
2022-10-24T04:56:06.521Z,24.89
2022-10-24T04:56:37.923Z,24.89
2022-10-24T04:57:09.389Z,24.89
2022-10-24T04:57:40.783Z,24.90
2022-10-24T04:58:12.320Z,24.88
2022-10-24T04:58:43.759Z,24.90
2022-10-24T04:59:15.217Z,24.92
2022-10-24T04:59:46.684Z,24.90
2022-10-24T05:00:18.066Z,24.87
2022-10-24T05:00:49.515Z,24.85
2022-10-24T05:01:20.992Z,24.85
2022-10-24T05:01:52.556Z,24.86
2022-10-24T05:02:24.087Z,24.86
2022-10-24T05:02:58.270Z,24.85
2022-10-24T05:03:30.863Z,24.86
2022-10-24T05:04:38.622Z,24.83
2022-10-24T05:05:10.070Z,24.84
2022-10-24T05:05:41.480Z,24.85
2022-10-24T05:06:12.880Z,24.86
2022-10-24T05:06:45.130Z,24.86
2022-10-24T05:07:16.723Z,24.84
2022-10-24T05:07:48.110Z,24.84
2022-10-24T05:08:19.569Z,24.85
2022-10-24T05:08:51.058Z,24.88
2022-10-24T05:09:22.605Z,24.88
2022-10-24T05:09:54.053Z,24.89
2022-10-24T05:10:25.519Z,24.88
2022-10-24T05:10:56.957Z,24.86
2022-10-24T05:11:28.380Z,24.87
2022-10-24T05:11:59.853Z,24.89
2022-10-24T05:12:31.263Z,24.90
2022-10-24T05:13:02.745Z,24.86
2022-10-24T05:13:36.622Z,24.86
2022-10-24T05:14:17.554Z,24.85
2022-10-24T05:14:49.023Z,24.84
2022-10-24T05:15:20.490Z,24.82
2022-10-24T05:15:52.085Z,24.82
2022-10-24T05:16:23.519Z,24.78
2022-10-24T05:16:54.936Z,24.79
2022-10-24T05:17:26.394Z,24.78
2022-10-24T05:17:57.837Z,24.79
2022-10-24T05:18:29.301Z,24.81
2022-10-24T05:19:00.723Z,24.78
2022-10-24T05:19:32.185Z,24.81
2022-10-24T05:20:03.643Z,24.84
2022-10-24T05:20:35.122Z,24.84
2022-10-24T05:21:06.641Z,24.84
2022-10-24T05:21:38.044Z,24.80
2022-10-24T05:22:10.840Z,24.80
2022-10-24T05:22:42.952Z,24.84
2022-10-24T05:23:14.648Z,24.81
2022-10-24T05:23:46.076Z,24.79
2022-10-24T05:24:17.514Z,24.74
2022-10-24T05:24:48.962Z,24.78
2022-10-24T05:25:20.396Z,24.80
2022-10-24T05:25:51.881Z,24.75
2022-10-24T05:26:23.306Z,24.78
2022-10-24T05:26:54.744Z,24.77
2022-10-24T05:27:26.224Z,24.79
2022-10-24T05:27:57.661Z,24.79
2022-10-24T05:28:29.149Z,24.80
2022-10-24T05:29:00.613Z,24.81
2022-10-24T05:29:32.089Z,24.86
2022-10-24T05:30:03.601Z,24.84
2022-10-24T05:30:35.155Z,24.85
2022-10-24T05:31:06.565Z,24.84
2022-10-24T05:31:38.128Z,24.84
2022-10-24T05:32:09.493Z,24.86
2022-10-24T05:32:40.935Z,24.85
2022-10-24T05:33:12.360Z,24.84
2022-10-24T05:33:43.844Z,24.83
2022-10-24T05:34:15.266Z,24.83
2022-10-24T05:34:46.675Z,24.82
2022-10-24T05:35:18.172Z,24.80
2022-10-24T05:35:49.595Z,24.80
2022-10-24T05:36:21.000Z,24.76
2022-10-24T05:36:52.468Z,24.75
2022-10-24T05:37:23.983Z,24.74
2022-10-24T05:37:55.444Z,24.76
2022-10-24T05:38:26.846Z,24.77
2022-10-24T05:38:58.284Z,24.77
2022-10-24T05:39:29.674Z,24.78
2022-10-24T05:40:01.068Z,24.79
2022-10-24T05:40:32.569Z,24.78
2022-10-24T05:41:04.002Z,24.82
2022-10-24T05:41:35.414Z,24.82
2022-10-24T05:42:06.810Z,24.78
2022-10-24T05:42:38.188Z,24.76
2022-10-24T05:43:09.579Z,24.75
2022-10-24T05:43:41.003Z,24.74
2022-10-24T05:44:12.411Z,24.70
2022-10-24T05:44:43.815Z,24.70
2022-10-24T05:45:15.279Z,24.67
2022-10-24T05:45:46.899Z,24.67
2022-10-24T05:46:18.348Z,24.72
2022-10-24T05:46:49.773Z,24.70
2022-10-24T05:47:22.766Z,24.72
2022-10-24T05:47:56.102Z,24.72
2022-10-24T05:48:27.516Z,24.71
2022-10-24T05:48:58.982Z,24.69
2022-10-24T05:49:30.504Z,24.71
2022-10-24T05:50:01.976Z,24.71
2022-10-24T05:50:33.364Z,24.73
2022-10-24T05:51:04.795Z,24.73
2022-10-24T05:51:36.227Z,24.73
2022-10-24T05:52:07.669Z,24.73
2022-10-24T05:52:42.074Z,24.76
2022-10-24T05:53:14.723Z,24.76
2022-10-24T05:53:46.148Z,24.77
2022-10-24T05:54:17.604Z,24.76
2022-10-24T05:54:55.746Z,24.77
2022-10-24T05:55:37.689Z,24.81
2022-10-24T05:56:09.106Z,24.82
2022-10-24T05:56:40.490Z,24.83
2022-10-24T05:57:11.857Z,24.83
2022-10-24T05:57:43.646Z,24.80
2022-10-24T05:58:15.183Z,24.81
2022-10-24T05:58:46.674Z,24.82
2022-10-24T05:59:18.047Z,24.83
2022-10-24T05:59:49.476Z,24.80
2022-10-24T06:00:20.853Z,24.80
2022-10-24T06:00:54.098Z,24.77
2022-10-24T06:01:25.859Z,24.80
2022-10-24T06:01:57.528Z,24.78
2022-10-24T06:02:29.114Z,24.74
2022-10-24T06:03:00.680Z,24.76
2022-10-24T06:03:32.098Z,24.76
2022-10-24T06:04:03.494Z,24.73
2022-10-24T06:04:34.928Z,24.73
2022-10-24T06:05:06.365Z,24.73
2022-10-24T06:05:37.779Z,24.73
2022-10-24T06:06:09.202Z,24.73
2022-10-24T06:06:40.669Z,24.71
2022-10-24T06:07:12.097Z,24.71
2022-10-24T06:07:43.814Z,24.72
2022-10-24T06:08:15.439Z,24.69
2022-10-24T06:08:46.813Z,24.71
2022-10-24T06:09:18.217Z,24.71
2022-10-24T06:09:49.676Z,24.72
2022-10-24T06:10:21.224Z,24.70
2022-10-24T06:10:52.643Z,24.68
2022-10-24T06:11:24.061Z,24.65
2022-10-24T06:11:55.546Z,24.61
2022-10-24T06:12:26.992Z,24.62
2022-10-24T06:12:58.618Z,24.63
2022-10-24T06:13:33.823Z,24.63
2022-10-24T06:14:07.584Z,24.65
2022-10-24T06:14:39.013Z,24.64
2022-10-24T06:15:10.463Z,24.64
2022-10-24T06:15:41.843Z,24.67
2022-10-24T06:16:13.262Z,24.67
2022-10-24T06:16:44.686Z,24.68
2022-10-24T06:17:16.132Z,24.65
2022-10-24T06:17:47.525Z,24.67
2022-10-24T06:18:18.917Z,24.67
2022-10-24T06:18:50.331Z,24.64
2022-10-24T06:19:21.749Z,24.65
2022-10-24T06:19:53.214Z,24.64
2022-10-24T06:20:24.629Z,24.65
2022-10-24T06:20:56.245Z,24.64
2022-10-24T06:21:27.752Z,24.63
2022-10-24T06:21:59.155Z,24.67
2022-10-24T06:22:30.774Z,24.68
2022-10-24T06:23:02.174Z,24.69
2022-10-24T06:23:33.731Z,24.70
2022-10-24T06:24:05.174Z,24.69
2022-10-24T06:24:36.593Z,24.69
2022-10-24T06:25:08.078Z,24.70
2022-10-24T06:25:39.535Z,24.71
2022-10-24T06:26:10.996Z,24.71
2022-10-24T06:26:42.365Z,24.72
2022-10-24T06:27:13.779Z,24.71
2022-10-24T06:27:45.242Z,24.71
2022-10-24T06:28:16.618Z,24.71
2022-10-24T06:28:48.072Z,24.70
2022-10-24T06:29:19.448Z,24.70
2022-10-24T06:29:50.870Z,24.70
2022-10-24T06:30:22.317Z,24.72
2022-10-24T06:30:53.785Z,24.71
2022-10-24T06:31:25.244Z,24.74
2022-10-24T06:31:56.618Z,24.74
2022-10-24T06:32:28.066Z,24.77
2022-10-24T06:32:59.661Z,24.80
2022-10-24T06:33:31.116Z,24.78
2022-10-24T06:34:02.566Z,24.78
2022-10-24T06:34:33.964Z,24.81
2022-10-24T06:35:05.456Z,24.79
2022-10-24T06:35:36.889Z,24.78
2022-10-24T06:36:08.303Z,24.79
2022-10-24T06:37:11.969Z,24.76
2022-10-24T06:37:47.128Z,24.78
2022-10-24T06:38:19.791Z,24.81
2022-10-24T06:38:51.207Z,24.76
2022-10-24T06:39:22.631Z,24.74
2022-10-24T06:39:54.077Z,24.72
2022-10-24T06:40:25.574Z,24.73
2022-10-24T06:40:56.982Z,24.76
2022-10-24T06:41:28.407Z,24.76
2022-10-24T06:41:59.899Z,24.77
2022-10-24T06:42:31.300Z,24.78
2022-10-24T06:43:02.714Z,24.77
2022-10-24T06:43:34.196Z,24.76
2022-10-24T06:44:08.869Z,24.77
2022-10-24T06:44:42.206Z,24.72
2022-10-24T06:45:13.652Z,24.74
2022-10-24T06:45:45.108Z,24.72
2022-10-24T06:46:16.548Z,24.72
2022-10-24T06:46:47.992Z,24.69
2022-10-24T06:47:19.394Z,24.66
2022-10-24T06:47:53.407Z,24.67
2022-10-24T06:48:26.026Z,24.69